Time;durP1;ratioP1;P1;durP2;ratioP2;P2;SDS_P1;SDS_P2;PMS_P1;PMS_P2;Temp;Humidity;BMP_temperature;BMP_pressure;BME280_temperature;BME280_humidity;BME280_pressure;Samples;Min_cycle;Max_cycle;Signal;HPM_P1;HPM_P2
2022/02/19 00:00:00;;;;;;;8.17;1.93;;;8.20;99.90;;;;;;5082757;28;20944;-70
2022/02/19 00:02:27;;;;;;;4.90;1.50;;;8.30;99.90;;;;;;5073916;28;20455;-70
2022/02/19 00:04:54;;;;;;;4.07;1.93;;;8.30;99.90;;;;;;5084061;28;20460;-69
2022/02/19 00:07:21;;;;;;;9.50;1.70;;;8.20;99.90;;;;;;5086704;28;21138;-69
2022/02/19 00:09:48;;;;;;;4.03;1.60;;;8.30;99.90;;;;;;5090294;28;20480;-70
2022/02/19 00:12:15;;;;;;;5.03;1.50;;;8.30;99.90;;;;;;5081217;28;20443;-69
2022/02/19 00:14:42;;;;;;;6.37;1.70;;;8.20;99.90;;;;;;5078754;28;20466;-70
2022/02/19 00:17:10;;;;;;;4.93;1.77;;;8.20;99.90;;;;;;5076929;28;20762;-69
2022/02/19 00:19:37;;;;;;;8.90;1.70;;;8.20;99.90;;;;;;5069867;28;20536;-69
2022/02/19 00:22:05;;;;;;;6.53;2.57;;;8.20;99.90;;;;;;5070310;28;20449;-69
2022/02/19 00:24:32;;;;;;;7.60;2.30;;;8.20;99.90;;;;;;5070396;28;20521;-71
2022/02/19 00:26:59;;;;;;;9.20;1.73;;;8.20;99.90;;;;;;5069782;28;20443;-69
2022/02/19 00:29:26;;;;;;;7.67;2.00;;;8.20;99.90;;;;;;5070457;28;20622;-69
2022/02/19 00:31:53;;;;;;;3.93;1.93;;;8.10;99.90;;;;;;5071161;28;20450;-69
2022/02/19 00:34:21;;;;;;;8.27;2.40;;;8.00;99.90;;;;;;5090461;28;20548;-69
2022/02/19 00:36:48;;;;;;;10.43;2.80;;;8.00;99.90;;;;;;5089542;28;20482;-69
2022/02/19 00:39:15;;;;;;;5.27;2.27;;;8.00;99.90;;;;;;5089975;28;20492;-70
2022/02/19 00:41:42;;;;;;;7.63;2.50;;;8.10;99.90;;;;;;5090011;28;20532;-66
2022/02/19 00:44:09;;;;;;;7.17;2.27;;;8.10;99.90;;;;;;5088637;28;20438;-69
2022/02/19 00:46:36;;;;;;;9.83;3.23;;;8.10;99.90;;;;;;5076370;28;20939;-69
2022/02/19 00:49:03;;;;;;;6.40;2.10;;;8.20;99.90;;;;;;5081636;28;20931;-71
2022/02/19 00:51:32;;;;;;;6.43;2.90;;;8.20;99.90;;;;;;5090183;28;20450;-70
2022/02/19 00:53:59;;;;;;;4.53;1.93;;;8.10;99.90;;;;;;5089185;28;20458;-70
2022/02/19 00:56:26;;;;;;;4.83;1.80;;;8.00;99.90;;;;;;5089693;28;20454;-69
2022/02/19 00:58:53;;;;;;;10.70;1.93;;;8.00;99.90;;;;;;5088609;28;20481;-70
2022/02/19 01:01:22;;;;;;;11.90;1.90;;;8.20;99.90;;;;;;5089218;28;20457;-69
2022/02/19 01:03:48;;;;;;;4.73;1.70;;;8.20;99.90;;;;;;5088024;28;20485;-69
2022/02/19 01:06:15;;;;;;;13.17;2.30;;;8.10;99.90;;;;;;5078960;28;20451;-69
2022/02/19 01:08:43;;;;;;;8.70;2.40;;;8.10;99.90;;;;;;5069154;28;20449;-68
2022/02/19 01:11:11;;;;;;;5.40;1.50;;;8.10;99.90;;;;;;5070424;28;20455;-68
2022/02/19 01:13:38;;;;;;;11.97;2.70;;;8.00;99.90;;;;;;5072220;28;20473;-69
2022/02/19 01:16:05;;;;;;;5.97;1.83;;;8.00;99.90;;;;;;5081166;28;20955;-68
2022/02/19 01:18:32;;;;;;;5.17;1.80;;;8.00;99.90;;;;;;5070000;28;21046;-69
2022/02/19 01:20:59;;;;;;;4.03;1.70;;;8.00;99.90;;;;;;5069676;28;20537;-68
2022/02/19 01:23:26;;;;;;;8.23;2.23;;;8.10;99.90;;;;;;5070372;28;20490;-68
2022/02/19 01:25:54;;;;;;;8.63;1.87;;;8.00;99.90;;;;;;5069760;28;20478;-68
2022/02/19 01:28:21;;;;;;;5.50;2.07;;;8.00;99.90;;;;;;5069654;28;20542;-68
2022/02/19 01:30:48;;;;;;;7.00;1.70;;;8.00;99.90;;;;;;5069395;28;20471;-68
2022/02/19 01:33:15;;;;;;;5.37;1.77;;;8.00;99.90;;;;;;5070179;28;20446;-69
2022/02/19 01:35:42;;;;;;;6.10;1.77;;;8.00;99.90;;;;;;5070092;28;20540;-69
2022/02/19 01:38:09;;;;;;;8.30;1.60;;;8.00;99.90;;;;;;5083342;28;20569;-68
2022/02/19 01:40:36;;;;;;;4.40;1.27;;;8.00;99.90;;;;;;5069844;28;20475;-69
2022/02/19 01:43:04;;;;;;;8.30;2.33;;;8.00;99.90;;;;;;5069389;28;20814;-69
2022/02/19 01:45:31;;;;;;;5.90;1.50;;;8.00;99.90;;;;;;5074124;28;20453;-68
2022/02/19 01:47:58;;;;;;;10.33;2.30;;;8.00;99.90;;;;;;5078467;28;20529;-69
2022/02/19 01:50:24;;;;;;;8.47;2.03;;;8.00;99.90;;;;;;5069566;28;20558;-69
2022/02/19 01:52:51;;;;;;;5.83;1.60;;;8.00;99.90;;;;;;5069415;28;20459;-68
2022/02/19 01:55:18;;;;;;;3.50;1.60;;;8.00;99.90;;;;;;5083516;28;20615;-68
2022/02/19 01:57:45;;;;;;;7.07;1.83;;;8.00;99.90;;;;;;5088577;28;20488;-68
2022/02/19 02:00:14;;;;;;;4.63;1.47;;;8.00;99.90;;;;;;5089898;28;20476;-68
2022/02/19 02:02:42;;;;;;;7.30;2.27;;;8.00;99.90;;;;;;5089700;28;20525;-69
2022/02/19 02:05:10;;;;;;;4.77;1.87;;;7.90;99.90;;;;;;5089646;28;20932;-68
2022/02/19 02:07:37;;;;;;;5.07;1.60;;;7.80;99.90;;;;;;5082492;28;20453;-69
2022/02/19 02:10:04;;;;;;;4.53;1.50;;;7.80;99.90;;;;;;5082110;28;20466;-68
2022/02/19 02:12:31;;;;;;;4.33;2.00;;;7.70;99.90;;;;;;5089563;28;20457;-68
2022/02/19 02:14:58;;;;;;;4.80;1.90;;;7.70;99.90;;;;;;5085025;28;20447;-68
2022/02/19 02:17:26;;;;;;;6.63;1.70;;;7.80;99.90;;;;;;5071275;28;20485;-70
2022/02/19 02:19:53;;;;;;;6.83;1.60;;;7.80;99.90;;;;;;5068670;28;20494;-70
2022/02/19 02:22:22;;;;;;;4.33;1.67;;;7.80;99.90;;;;;;5068953;28;20971;-68
2022/02/19 02:24:49;;;;;;;4.73;1.70;;;7.80;99.90;;;;;;5074348;28;20983;-68
2022/02/19 02:27:17;;;;;;;4.30;1.40;;;7.70;99.90;;;;;;5089456;28;20458;-68
2022/02/19 02:29:46;;;;;;;3.30;1.53;;;7.70;99.90;;;;;;5088776;28;20472;-69
2022/02/19 02:32:13;;;;;;;4.00;1.67;;;7.70;99.90;;;;;;5089451;28;20580;-68
2022/02/19 02:34:52;;;;;;;6.10;1.50;;;7.70;99.90;;;;;;5089377;28;20818;-68
2022/02/19 02:37:19;;;;;;;6.03;1.70;;;7.70;99.90;;;;;;5089105;28;20904;-68
2022/02/19 02:39:48;;;;;;;2.70;1.27;;;7.60;99.90;;;;;;5089057;28;20466;-69
2022/02/19 02:42:15;;;;;;;6.60;1.93;;;7.50;99.90;;;;;;5089393;28;20454;-68
2022/02/19 02:44:42;;;;;;;4.90;1.47;;;7.50;99.90;;;;;;5081404;28;20534;-69
2022/02/19 02:47:10;;;;;;;7.40;1.80;;;7.50;99.90;;;;;;5081826;28;20440;-68
2022/02/19 02:49:38;;;;;;;8.03;2.13;;;7.50;99.90;;;;;;5068226;28;20467;-69
2022/02/19 02:52:07;;;;;;;7.90;1.80;;;7.50;99.90;;;;;;5068900;28;21000;-68
2022/02/19 02:54:34;;;;;;;6.83;1.73;;;7.50;99.90;;;;;;5088709;28;20528;-69
2022/02/19 02:57:02;;;;;;;6.43;3.07;;;7.50;99.90;;;;;;5088024;28;20824;-69
2022/02/19 02:59:29;;;;;;;6.97;2.40;;;7.50;99.90;;;;;;5088456;28;21041;-68
2022/02/19 03:01:56;;;;;;;5.70;1.80;;;7.40;99.90;;;;;;5088281;28;20449;-68
2022/02/19 03:04:23;;;;;;;5.57;1.77;;;7.40;99.90;;;;;;5088851;28;20442;-69
2022/02/19 03:06:50;;;;;;;4.97;1.70;;;7.30;99.90;;;;;;5088324;28;20537;-68
2022/02/19 03:09:17;;;;;;;8.30;2.20;;;7.30;99.90;;;;;;5081684;28;20566;-69
2022/02/19 03:11:43;;;;;;;6.17;1.63;;;7.40;99.90;;;;;;5087951;28;20442;-69
2022/02/19 03:14:12;;;;;;;5.67;1.73;;;7.30;99.90;;;;;;5088032;28;20856;-68
2022/02/19 03:16:39;;;;;;;3.57;1.23;;;7.30;99.90;;;;;;5070523;28;20949;-69
2022/02/19 03:19:06;;;;;;;6.43;2.50;;;7.30;99.90;;;;;;5073490;28;20494;-69
2022/02/19 03:21:33;;;;;;;4.43;1.83;;;7.20;99.90;;;;;;5068446;28;20447;-69
2022/02/19 03:24:00;;;;;;;4.17;1.17;;;7.30;99.90;;;;;;5068080;28;20490;-68
2022/02/19 03:26:26;;;;;;;9.50;2.80;;;7.30;99.90;;;;;;5067709;28;20455;-68
2022/02/19 03:28:55;;;;;;;6.40;1.67;;;7.20;99.90;;;;;;5067405;28;20485;-69
2022/02/19 03:31:24;;;;;;;6.93;1.60;;;7.20;99.90;;;;;;5082003;28;20450;-69
2022/02/19 03:33:51;;;;;;;7.50;1.60;;;7.20;99.90;;;;;;5087974;28;20442;-68
2022/02/19 03:36:18;;;;;;;7.67;1.60;;;7.20;99.90;;;;;;5088306;28;20517;-69
2022/02/19 03:38:45;;;;;;;6.80;1.63;;;7.10;99.90;;;;;;5080524;28;21019;-69
2022/02/19 03:41:12;;;;;;;3.97;1.20;;;7.10;99.90;;;;;;5069164;28;20954;-68
2022/02/19 03:43:38;;;;;;;7.63;1.63;;;7.10;99.90;;;;;;5068665;28;20449;-68
2022/02/19 03:46:05;;;;;;;7.97;1.47;;;7.10;99.90;;;;;;5069784;28;20450;-68
2022/02/19 03:48:34;;;;;;;9.40;1.97;;;7.00;99.90;;;;;;5069209;28;20963;-67
2022/02/19 03:51:00;;;;;;;8.00;1.90;;;7.00;99.90;;;;;;5069801;28;20443;-67
2022/02/19 03:53:27;;;;;;;7.00;1.90;;;7.00;99.90;;;;;;5069462;28;20442;-68
2022/02/19 03:55:54;;;;;;;5.67;1.90;;;6.90;99.90;;;;;;5069486;28;20831;-67
2022/02/19 03:58:21;;;;;;;3.67;1.23;;;6.90;99.90;;;;;;5068826;28;20482;-66
2022/02/19 04:00:48;;;;;;;4.80;1.53;;;6.90;99.90;;;;;;5070202;28;20473;-68
2022/02/19 04:03:14;;;;;;;5.27;1.80;;;6.90;99.90;;;;;;5070538;28;20829;-66
2022/02/19 04:05:43;;;;;;;6.63;1.77;;;6.90;99.90;;;;;;5070707;28;20938;-67
2022/02/19 04:08:09;;;;;;;5.37;1.90;;;6.90;99.90;;;;;;5070666;28;20446;-67
2022/02/19 04:10:37;;;;;;;8.30;2.07;;;6.90;99.90;;;;;;5069898;28;20462;-67
2022/02/19 04:13:04;;;;;;;4.70;1.27;;;6.80;99.90;;;;;;5069543;28;20447;-68
2022/02/19 04:15:31;;;;;;;8.27;1.63;;;6.70;99.90;;;;;;5069346;28;20948;-67
2022/02/19 04:17:58;;;;;;;4.20;1.60;;;6.70;99.90;;;;;;5069237;28;20478;-68
2022/02/19 04:20:26;;;;;;;7.33;1.70;;;6.60;99.90;;;;;;5069418;28;20525;-67
2022/02/19 04:22:56;;;;;;;6.43;1.70;;;6.60;99.90;;;;;;5069474;28;20457;-68
2022/02/19 04:25:25;;;;;;;7.77;1.80;;;6.60;99.90;;;;;;5069278;28;20450;-67
2022/02/19 04:27:52;;;;;;;5.53;1.50;;;6.60;99.90;;;;;;5069412;28;20443;-67
2022/02/19 04:30:19;;;;;;;4.40;1.93;;;6.50;99.90;;;;;;5069549;28;20467;-67
2022/02/19 04:32:46;;;;;;;5.00;1.70;;;6.50;99.90;;;;;;5069743;28;20838;-68
2022/02/19 04:35:14;;;;;;;6.63;2.07;;;6.50;99.90;;;;;;5069522;28;20443;-68
2022/02/19 04:37:41;;;;;;;5.17;2.23;;;6.50;99.90;;;;;;5069348;28;20479;-67
2022/02/19 04:40:11;;;;;;;6.30;1.50;;;6.50;99.90;;;;;;5072788;28;20458;-67
2022/02/19 04:42:38;;;;;;;7.57;2.00;;;6.50;99.90;;;;;;5073215;28;20504;-67
2022/02/19 04:45:06;;;;;;;7.13;2.40;;;6.50;99.90;;;;;;5072919;28;20474;-67
2022/02/19 04:47:34;;;;;;;6.23;1.63;;;6.50;99.90;;;;;;5072275;28;20579;-67
2022/02/19 04:50:01;;;;;;;6.63;1.67;;;6.40;99.90;;;;;;5072482;28;20520;-67
2022/02/19 04:52:28;;;;;;;7.33;1.73;;;6.30;99.90;;;;;;5072178;28;20443;-67
2022/02/19 04:54:55;;;;;;;7.67;1.67;;;6.30;99.90;;;;;;5072351;28;20477;-67
2022/02/19 04:57:23;;;;;;;6.40;1.50;;;6.30;99.90;;;;;;5072171;28;20558;-68
2022/02/19 04:59:50;;;;;;;4.50;1.70;;;6.30;99.90;;;;;;5072175;28;20478;-67
2022/02/19 05:02:17;;;;;;;6.60;2.47;;;6.20;99.90;;;;;;5072209;28;20451;-67
2022/02/19 05:04:44;;;;;;;5.30;1.33;;;6.20;99.90;;;;;;5072209;28;20826;-67
2022/02/19 05:07:11;;;;;;;4.63;1.80;;;6.20;99.90;;;;;;5071830;28;20542;-67
2022/02/19 05:09:38;;;;;;;7.20;1.30;;;6.20;99.90;;;;;;5072273;28;20463;-68
2022/02/19 05:12:06;;;;;;;7.40;2.10;;;6.20;99.90;;;;;;5072088;28;20450;-68
2022/02/19 05:14:34;;;;;;;7.80;1.97;;;6.20;99.90;;;;;;5072109;28;20497;-67
2022/02/19 05:17:01;;;;;;;5.47;2.23;;;6.20;99.90;;;;;;5071879;28;20529;-67
2022/02/19 05:19:28;;;;;;;7.60;1.83;;;6.20;99.90;;;;;;5071610;28;20509;-68
2022/02/19 05:21:54;;;;;;;6.10;1.60;;;6.20;99.90;;;;;;5072193;28;20846;-67
2022/02/19 05:24:21;;;;;;;6.70;1.73;;;6.20;99.90;;;;;;5072131;28;20455;-67
2022/02/19 05:26:57;;;;;;;7.77;1.97;;;6.20;99.90;;;;;;5071856;28;20963;-68
2022/02/19 05:29:26;;;;;;;5.50;2.00;;;6.20;99.90;;;;;;5071462;28;20988;-68
2022/02/19 05:31:55;;;;;;;7.17;1.87;;;6.20;99.90;;;;;;5071693;28;20443;-68
2022/02/19 05:34:21;;;;;;;5.80;2.03;;;6.20;99.90;;;;;;5071497;28;20546;-67
2022/02/19 05:36:48;;;;;;;6.63;2.43;;;6.20;99.90;;;;;;5071580;28;20955;-67
2022/02/19 05:39:15;;;;;;;5.33;1.80;;;6.20;99.90;;;;;;5071229;28;20483;-67
2022/02/19 05:41:43;;;;;;;13.03;3.23;;;6.20;99.90;;;;;;5071580;28;20453;-68
2022/02/19 05:44:10;;;;;;;6.13;2.10;;;6.10;99.90;;;;;;5071474;28;20534;-67
2022/02/19 05:46:37;;;;;;;10.67;2.33;;;6.20;99.90;;;;;;5071386;28;20458;-67
2022/02/19 05:49:06;;;;;;;8.70;1.97;;;6.10;99.90;;;;;;5070961;28;20461;-67
2022/02/19 05:51:32;;;;;;;11.53;2.17;;;6.10;99.90;;;;;;5071178;28;20478;-68
2022/02/19 05:53:59;;;;;;;12.20;3.10;;;6.10;99.90;;;;;;5071199;28;20538;-67
2022/02/19 05:56:26;;;;;;;6.03;2.00;;;6.00;99.90;;;;;;5085994;22;20491;-71
2022/02/19 05:58:53;;;;;;;10.63;2.93;;;6.00;99.90;;;;;;5069905;28;20475;-71
2022/02/19 06:01:21;;;;;;;5.77;1.93;;;6.00;99.90;;;;;;5070947;28;20454;-69
2022/02/19 06:03:48;;;;;;;7.53;1.97;;;6.00;99.90;;;;;;5071006;28;20496;-69
2022/02/19 06:06:17;;;;;;;8.00;1.87;;;5.90;99.90;;;;;;5070689;28;20996;-70
2022/02/19 06:08:44;;;;;;;10.63;2.17;;;5.90;99.90;;;;;;5070844;28;20435;-69
2022/02/19 06:11:10;;;;;;;4.27;1.80;;;5.90;99.90;;;;;;5070693;28;20534;-72
2022/02/19 06:13:37;;;;;;;8.20;2.00;;;5.80;99.90;;;;;;5071072;28;20447;-70
2022/02/19 06:16:05;;;;;;;7.20;2.10;;;5.90;99.90;;;;;;5070509;28;21075;-69
2022/02/19 06:18:31;;;;;;;8.13;1.90;;;5.80;99.90;;;;;;5070833;28;20875;-71
2022/02/19 06:20:58;;;;;;;6.77;1.70;;;5.70;99.90;;;;;;5070507;28;20447;-68
2022/02/19 06:23:27;;;;;;;6.87;1.73;;;5.70;99.90;;;;;;5070783;28;20534;-69
2022/02/19 06:25:53;;;;;;;10.30;2.20;;;5.70;99.90;;;;;;5070733;28;20450;-72
2022/02/19 06:28:20;;;;;;;3.63;1.50;;;5.60;99.90;;;;;;5068598;28;20453;-69
2022/02/19 06:30:47;;;;;;;4.90;1.70;;;5.60;99.90;;;;;;5070249;28;20447;-70
2022/02/19 06:33:14;;;;;;;5.83;1.70;;;5.60;99.90;;;;;;5070646;28;20527;-69
2022/02/19 06:35:41;;;;;;;9.27;1.80;;;5.60;99.90;;;;;;5070453;28;20458;-69
2022/02/19 06:38:08;;;;;;;5.70;1.77;;;5.60;99.90;;;;;;5069840;28;20447;-73
2022/02/19 06:40:36;;;;;;;8.90;3.30;;;5.60;99.90;;;;;;5069444;28;20505;-70
2022/02/19 06:43:03;;;;;;;6.00;2.27;;;5.60;99.90;;;;;;5064014;28;20471;-70
2022/02/19 06:45:30;;;;;;;6.53;1.80;;;5.50;99.90;;;;;;5063218;28;20978;-70
2022/02/19 06:47:57;;;;;;;10.37;2.47;;;5.50;99.90;;;;;;5069160;28;20554;-70
2022/02/19 06:50:23;;;;;;;9.80;3.17;;;5.50;99.90;;;;;;5070101;28;20439;-68
2022/02/19 06:52:51;;;;;;;6.10;1.70;;;5.60;99.90;;;;;;5069992;28;20530;-72
2022/02/19 06:55:18;;;;;;;10.23;1.83;;;5.50;99.90;;;;;;5070415;28;20450;-70
2022/02/19 06:57:48;;;;;;;7.97;2.10;;;5.50;99.90;;;;;;5069660;28;20502;-72
2022/02/19 07:00:16;;;;;;;13.03;2.20;;;5.50;99.90;;;;;;5070018;28;20490;-70
2022/02/19 07:02:44;;;;;;;4.20;1.93;;;5.50;99.90;;;;;;5068905;28;20448;-72
2022/02/19 07:05:11;;;;;;;4.53;2.80;;;5.40;99.90;;;;;;5069123;28;21014;-70
2022/02/19 07:07:38;;;;;;;6.47;2.30;;;5.40;99.90;;;;;;5056833;28;20467;-70
2022/02/19 07:10:07;;;;;;;9.70;2.33;;;5.40;99.90;;;;;;5063241;28;20431;-71
2022/02/19 07:12:34;;;;;;;5.73;1.60;;;5.50;99.90;;;;;;5062476;28;20546;-71
2022/02/19 07:15:02;;;;;;;6.27;2.23;;;5.50;99.90;;;;;;5064535;28;21038;-71
2022/02/19 07:17:29;;;;;;;12.43;2.30;;;5.50;99.90;;;;;;5069465;28;20454;-72
2022/02/19 07:19:56;;;;;;;6.03;1.97;;;5.50;99.90;;;;;;5069620;28;20511;-72
2022/02/19 07:22:22;;;;;;;11.03;2.13;;;5.40;99.90;;;;;;5069986;28;20474;-69
2022/02/19 07:24:49;;;;;;;12.77;2.60;;;5.50;99.90;;;;;;5069462;28;20451;-71
2022/02/19 07:27:16;;;;;;;4.37;1.50;;;5.50;99.90;;;;;;5069391;28;21358;-69
2022/02/19 07:29:43;;;;;;;5.77;1.90;;;5.50;99.90;;;;;;5067227;28;20826;-70
2022/02/19 07:32:13;;;;;;;6.47;1.93;;;5.50;99.90;;;;;;5069424;28;20451;-69
2022/02/19 07:34:40;;;;;;;6.73;2.37;;;5.50;99.90;;;;;;5069701;28;20458;-70
2022/02/19 07:37:07;;;;;;;10.13;1.87;;;5.50;99.90;;;;;;5069130;28;20890;-73
2022/02/19 07:39:33;;;;;;;5.73;1.87;;;5.50;99.90;;;;;;5069431;28;20506;-71
2022/02/19 07:42:00;;;;;;;6.03;1.70;;;5.50;99.90;;;;;;5067831;28;20887;-72
2022/02/19 07:44:27;;;;;;;10.23;2.40;;;5.50;99.90;;;;;;5059775;28;20451;-70
2022/02/19 07:46:54;;;;;;;9.17;1.70;;;5.50;99.90;;;;;;5069089;28;20562;-70
2022/02/19 08:00:19;;;;;;;6.53;1.73;;;5.90;99.90;;;;;;5063535;28;20559;-70
2022/02/19 08:02:46;;;;;;;5.13;2.00;;;5.90;99.90;;;;;;5059345;28;20523;-70
2022/02/19 08:05:14;;;;;;;10.60;2.07;;;5.90;99.90;;;;;;5066366;28;20459;-70
2022/02/19 08:07:41;;;;;;;8.30;2.27;;;5.90;99.90;;;;;;5063534;28;20478;-71
2022/02/19 08:10:09;;;;;;;8.73;2.27;;;6.00;99.90;;;;;;5062056;28;20443;-70
2022/02/19 08:12:35;;;;;;;10.13;2.73;;;6.00;99.90;;;;;;5069009;28;20526;-68
2022/02/19 08:15:02;;;;;;;5.67;2.13;;;6.00;99.90;;;;;;5072736;28;20454;-71
2022/02/19 08:17:31;;;;;;;8.30;2.47;;;6.10;99.90;;;;;;5061863;28;20588;-72
2022/02/19 08:19:58;;;;;;;7.17;2.30;;;6.10;99.90;;;;;;5072272;28;21103;-71
2022/02/19 08:22:26;;;;;;;4.20;1.63;;;6.20;99.90;;;;;;5068050;28;20531;-70
2022/02/19 08:24:53;;;;;;;6.50;1.53;;;6.20;99.90;;;;;;5057983;28;20457;-70
2022/02/19 08:27:20;;;;;;;6.60;1.87;;;6.20;99.90;;;;;;5070255;28;20459;-70
2022/02/19 08:29:47;;;;;;;5.73;2.47;;;6.20;99.90;;;;;;5065970;28;20447;-73
2022/02/19 08:32:14;;;;;;;5.30;2.30;;;6.20;99.90;;;;;;5069394;28;20477;-69
2022/02/19 08:34:40;;;;;;;6.50;2.00;;;6.20;99.90;;;;;;5067512;28;20449;-69
2022/02/19 08:37:07;;;;;;;3.30;1.60;;;6.30;99.90;;;;;;5061085;28;21011;-73
2022/02/19 08:39:35;;;;;;;5.60;2.47;;;6.30;99.90;;;;;;5068128;28;20476;-71
2022/02/19 08:42:03;;;;;;;7.30;2.27;;;6.30;99.90;;;;;;5066087;28;20960;-69
2022/02/19 08:44:30;;;;;;;5.40;1.67;;;6.30;99.90;;;;;;5061099;28;20539;-70
2022/02/19 08:46:56;;;;;;;10.40;2.20;;;6.40;99.90;;;;;;5066957;28;20474;-71
2022/02/19 08:49:25;;;;;;;4.80;2.03;;;6.40;99.90;;;;;;5064936;28;20435;-73
2022/02/19 08:51:52;;;;;;;7.23;3.07;;;6.50;99.90;;;;;;5072065;28;20443;-73
2022/02/19 08:54:18;;;;;;;5.10;1.90;;;6.50;99.90;;;;;;5067048;28;20465;-70
2022/02/19 08:56:48;;;;;;;6.67;1.47;;;6.50;99.90;;;;;;5072158;28;20467;-69
2022/02/19 08:59:15;;;;;;;8.23;2.03;;;6.50;99.90;;;;;;5071934;28;20487;-69
2022/02/19 09:01:42;;;;;;;6.00;1.80;;;6.50;99.90;;;;;;5066170;28;21241;-72
2022/02/19 09:04:09;;;;;;;6.90;3.00;;;6.50;99.90;;;;;;5065092;28;20534;-69
2022/02/19 09:06:36;;;;;;;9.20;2.03;;;6.60;99.90;;;;;;5069352;28;20467;-71
2022/02/19 09:09:04;;;;;;;5.37;2.50;;;6.70;99.90;;;;;;5071701;28;20432;-71
2022/02/19 09:11:31;;;;;;;10.00;2.83;;;6.70;99.90;;;;;;5072173;28;20528;-72
2022/02/19 09:13:59;;;;;;;8.10;1.90;;;6.80;99.90;;;;;;5072265;28;20541;-69
2022/02/19 09:16:26;;;;;;;6.07;1.80;;;6.80;99.90;;;;;;5071879;28;21022;-69
2022/02/19 09:18:53;;;;;;;5.50;1.67;;;6.80;99.90;;;;;;5071643;28;20556;-74
2022/02/19 09:21:19;;;;;;;9.83;1.97;;;6.90;99.90;;;;;;5071670;28;20446;-71
2022/02/19 09:23:46;;;;;;;4.93;1.77;;;6.80;99.90;;;;;;5071782;28;20841;-72
2022/02/19 09:26:13;;;;;;;6.03;2.17;;;6.80;99.90;;;;;;5070504;28;20475;-72
2022/02/19 09:28:40;;;;;;;5.70;1.60;;;6.80;99.90;;;;;;5071459;28;20471;-72
2022/02/19 09:31:08;;;;;;;6.30;2.03;;;6.80;99.90;;;;;;5071982;28;20463;-71
2022/02/19 09:33:35;;;;;;;10.60;2.30;;;6.90;99.90;;;;;;5071400;28;20451;-71
2022/02/19 09:36:02;;;;;;;5.30;1.70;;;6.90;99.90;;;;;;5071660;28;20451;-71
2022/02/19 09:38:29;;;;;;;6.73;2.00;;;6.80;99.90;;;;;;5070886;28;20454;-72
2022/02/19 09:40:57;;;;;;;6.00;1.87;;;6.90;99.90;;;;;;5071124;28;20479;-72
2022/02/19 09:43:24;;;;;;;7.40;1.80;;;7.00;99.90;;;;;;5071658;28;20458;-72
2022/02/19 09:45:52;;;;;;;7.03;1.40;;;7.00;99.90;;;;;;5071739;28;20446;-71
2022/02/19 09:48:20;;;;;;;4.90;1.93;;;7.10;99.90;;;;;;5070781;28;20535;-70
2022/02/19 09:50:49;;;;;;;2.40;1.00;;;7.00;99.90;;;;;;5071276;28;20965;-73
2022/02/19 09:53:16;;;;;;;7.03;1.60;;;7.00;99.90;;;;;;5067263;28;20455;-71
2022/02/19 09:55:43;;;;;;;4.13;1.50;;;7.10;99.90;;;;;;5062694;28;20529;-74
2022/02/19 09:58:10;;;;;;;7.73;1.50;;;7.10;99.90;;;;;;5068608;28;20455;-71
2022/02/19 10:00:42;;;;;;;4.80;1.30;;;7.20;99.90;;;;;;5067085;28;20486;-73
2022/02/19 10:03:13;;;;;;;5.10;1.77;;;7.20;99.90;;;;;;5062479;28;20937;-72
2022/02/19 10:05:43;;;;;;;3.77;1.30;;;7.30;99.90;;;;;;5067642;28;21018;-72
2022/02/19 10:08:10;;;;;;;4.17;1.50;;;7.30;99.90;;;;;;5067597;28;20448;-70
2022/02/19 10:10:40;;;;;;;6.03;1.67;;;7.30;99.90;;;;;;5070560;28;20823;-71
2022/02/19 10:13:07;;;;;;;6.93;1.97;;;7.30;99.90;;;;;;5063722;28;20451;-71
2022/02/19 10:15:46;;;;;;;6.20;1.70;;;7.30;99.90;;;;;;5070756;28;20542;-71
2022/02/19 10:18:23;;;;;;;7.47;2.47;;;7.40;99.90;;;;;;5063962;28;20439;-70
2022/02/19 10:20:52;;;;;;;9.67;2.07;;;7.50;99.90;;;;;;5070567;28;20561;-71
2022/02/19 10:23:19;;;;;;;7.73;1.90;;;7.50;99.90;;;;;;5070717;28;20458;-68
2022/02/19 10:26:01;;;;;;;6.67;1.37;;;7.70;99.90;;;;;;5070700;28;20538;-72
2022/02/19 10:28:27;;;;;;;8.90;2.00;;;7.80;99.90;;;;;;5065898;28;20443;-71
2022/02/19 10:30:54;;;;;;;3.60;1.30;;;7.80;99.90;;;;;;5070435;28;20526;-71
2022/02/19 10:33:25;;;;;;;5.77;1.57;;;7.90;99.90;;;;;;5070582;28;20526;-70
2022/02/19 10:35:54;;;;;;;5.63;1.60;;;7.90;99.90;;;;;;5070650;28;20443;-70
2022/02/19 10:38:21;;;;;;;4.07;2.00;;;8.10;99.90;;;;;;5070378;28;20805;-70
2022/02/19 10:40:49;;;;;;;3.63;1.73;;;8.20;99.90;;;;;;5070604;28;21083;-70
2022/02/19 10:43:20;;;;;;;7.80;1.93;;;8.40;99.90;;;;;;5070345;28;20550;-70
2022/02/19 10:45:54;;;;;;;6.33;1.90;;;8.40;99.90;;;;;;5070271;28;20447;-74
2022/02/19 10:48:25;;;;;;;6.10;2.97;;;8.30;99.90;;;;;;5069912;28;20446;-70
2022/02/19 10:50:53;;;;;;;5.30;1.57;;;8.20;99.90;;;;;;5070306;28;20450;-70
2022/02/19 10:53:22;;;;;;;5.93;1.77;;;8.20;99.90;;;;;;5069779;28;20447;-70
2022/02/19 10:55:49;;;;;;;6.37;2.20;;;8.10;99.90;;;;;;5070087;28;20530;-73
2022/02/19 10:58:17;;;;;;;5.53;1.70;;;8.10;99.90;;;;;;5069744;28;20457;-70
2022/02/19 11:00:45;;;;;;;5.37;1.80;;;8.20;99.90;;;;;;5069848;28;20515;-71
2022/02/19 11:03:13;;;;;;;5.00;1.63;;;8.30;99.90;;;;;;5070204;28;20442;-69
2022/02/19 11:05:40;;;;;;;4.33;1.73;;;8.30;99.90;;;;;;5062948;28;20463;-75
2022/02/19 11:08:08;;;;;;;8.47;5.13;;;8.30;99.90;;;;;;5064839;28;20470;-75
2022/02/19 11:10:35;;;;;;;5.90;1.50;;;8.30;99.90;;;;;;5065359;28;20442;-73
2022/02/19 11:13:03;;;;;;;4.40;1.63;;;8.40;99.90;;;;;;5066092;28;20447;-70
2022/02/19 11:15:31;;;;;;;4.10;1.63;;;8.20;99.90;;;;;;5065085;28;20478;-72
2022/02/19 11:17:58;;;;;;;3.83;1.50;;;8.20;99.90;;;;;;5062608;28;20470;-73
2022/02/19 11:20:25;;;;;;;7.63;2.03;;;8.30;99.90;;;;;;5063767;28;20486;-71
2022/02/19 11:22:54;;;;;;;4.20;1.40;;;8.60;99.90;;;;;;5064845;28;21280;-70
2022/02/19 11:25:24;;;;;;;5.20;1.63;;;8.80;99.90;;;;;;5066043;28;20436;-70
2022/02/19 11:27:57;;;;;;;3.80;1.50;;;9.10;99.90;;;;;;5064101;28;20546;-70
2022/02/19 11:30:27;;;;;;;8.17;1.80;;;9.10;99.90;;;;;;5065908;28;20554;-74
2022/02/19 11:32:56;;;;;;;5.10;1.60;;;9.00;99.90;;;;;;5063571;28;20462;-72
2022/02/19 11:35:38;;;;;;;5.20;2.23;;;8.90;99.90;;;;;;5064537;28;20526;-71
2022/02/19 11:38:22;;;;;;;4.83;1.30;;;8.90;99.90;;;;;;5064581;28;20566;-71
2022/02/19 11:40:52;;;;;;;4.27;1.23;;;9.10;99.90;;;;;;5065446;28;20479;-72
2022/02/19 11:43:38;;;;;;;4.83;1.77;;;9.00;99.90;;;;;;5065771;28;20465;-75
2022/02/19 11:46:10;;;;;;;5.10;1.30;;;8.90;99.90;;;;;;5065032;28;20498;-73
2022/02/19 11:48:37;;;;;;;3.13;0.90;;;8.90;99.90;;;;;;5065580;28;20966;-75
2022/02/19 11:51:18;;;;;;;3.20;1.20;;;9.00;99.90;;;;;;5067830;28;20447;-72
2022/02/19 11:53:46;;;;;;;4.17;1.57;;;9.20;99.20;;;;;;5068489;28;20454;-71
2022/02/19 11:56:28;;;;;;;4.33;1.60;;;9.20;98.40;;;;;;5068591;28;20485;-75
2022/02/19 11:58:57;;;;;;;3.13;1.33;;;9.30;99.60;;;;;;5068668;28;20822;-71
2022/02/19 12:01:24;;;;;;;4.43;1.47;;;9.40;99.30;;;;;;5068996;28;20483;-74
2022/02/19 12:04:13;;;;;;;9.67;1.77;;;9.50;99.00;;;;;;5069564;28;20438;-71
2022/02/19 12:06:41;;;;;;;8.27;2.73;;;9.50;98.20;;;;;;5069460;28;21164;-70
2022/02/19 12:09:13;;;;;;;3.17;1.07;;;9.50;98.80;;;;;;5072394;28;20439;-72
2022/02/19 12:12:05;;;;;;;4.13;1.23;;;9.70;98.20;;;;;;5067406;28;20975;-71
2022/02/19 12:14:57;;;;;;;4.63;1.20;;;9.60;99.10;;;;;;5069020;28;20435;-71
2022/02/19 12:17:26;;;;;;;5.13;1.83;;;9.60;97.60;;;;;;5065108;28;20467;-70
2022/02/19 12:20:02;;;;;;;6.43;1.83;;;9.70;98.50;;;;;;5070700;28;20455;-72
2022/02/19 12:22:34;;;;;;;4.80;1.83;;;9.70;98.00;;;;;;5066150;28;20458;-72
2022/02/19 12:25:03;;;;;;;4.73;1.67;;;9.80;99.00;;;;;;5069648;28;20964;-71
2022/02/19 12:27:32;;;;;;;7.80;1.80;;;9.70;99.10;;;;;;5070968;28;20473;-72
2022/02/19 12:30:26;;;;;;;4.83;1.57;;;9.70;99.90;;;;;;5069996;28;20447;-72
2022/02/19 12:32:56;;;;;;;9.30;1.87;;;9.70;99.90;;;;;;5043669;28;20547;-76
2022/02/19 12:35:34;;;;;;;3.30;1.63;;;9.70;99.90;;;;;;5069929;28;20451;-70
2022/02/19 12:38:02;;;;;;;3.53;1.60;;;9.80;99.20;;;;;;5068004;28;20470;-75
2022/02/19 12:40:30;;;;;;;5.27;1.40;;;9.60;99.90;;;;;;5070526;28;20475;-73
2022/02/19 12:42:59;;;;;;;4.23;1.30;;;9.60;99.90;;;;;;5072462;28;20489;-74
2022/02/19 12:45:26;;;;;;;5.20;1.80;;;9.50;99.90;;;;;;5071703;28;20435;-70
2022/02/19 12:47:53;;;;;;;3.20;1.43;;;9.70;99.90;;;;;;5071919;28;20570;-71
2022/02/19 14:04:38;;;;;;;3.87;1.80;;;9.10;97.40;;;;;;5947594;22;21459;-73
2022/02/19 14:07:08;;;;;;;2.60;1.13;;;9.10;97.60;;;;;;5009515;28;20968;-71
2022/02/19 14:09:35;;;;;;;3.70;1.47;;;9.00;99.50;;;;;;5011217;28;20472;-73
2022/02/19 14:12:03;;;;;;;5.13;1.17;;;9.00;97.80;;;;;;5011082;28;20452;-72
2022/02/19 14:14:33;;;;;;;3.70;0.97;;;9.00;97.20;;;;;;5011016;28;20466;-73
2022/02/19 14:17:01;;;;;;;3.43;1.23;;;9.00;98.10;;;;;;5011337;28;20445;-72
2022/02/19 14:19:28;;;;;;;6.10;1.30;;;9.00;98.10;;;;;;5009900;28;20452;-71
2022/02/19 14:22:06;;;;;;;4.57;1.50;;;9.10;96.10;;;;;;5010711;28;20488;-71
2022/02/19 14:24:33;;;;;;;2.97;1.43;;;9.20;97.00;;;;;;5010049;28;20856;-72